createdAt,value
2022-12-02T00:00:11.821Z,3.80
2022-12-02T00:01:11.948Z,3.79
2022-12-02T00:02:11.751Z,3.79
2022-12-02T00:03:12.260Z,3.78
2022-12-02T00:04:11.930Z,3.78
2022-12-02T00:05:11.824Z,3.79
2022-12-02T00:06:11.714Z,3.78
2022-12-02T00:07:11.700Z,3.75
2022-12-02T00:08:11.770Z,3.76
2022-12-02T00:09:11.856Z,3.76
2022-12-02T00:10:11.832Z,3.76
2022-12-02T00:11:11.674Z,3.72
2022-12-02T00:12:11.794Z,3.75
2022-12-02T00:13:11.777Z,3.76
2022-12-02T00:14:11.714Z,3.72
2022-12-02T00:15:11.759Z,3.71
2022-12-02T00:16:11.839Z,3.70
2022-12-02T00:17:11.632Z,3.68
2022-12-02T00:18:11.783Z,3.65
2022-12-02T00:19:11.746Z,3.64
2022-12-02T00:20:11.602Z,3.65
2022-12-02T00:21:11.599Z,3.65
2022-12-02T00:22:11.564Z,3.64
2022-12-02T00:23:12.291Z,3.62
2022-12-02T00:24:11.567Z,3.61
2022-12-02T00:25:11.580Z,3.60
2022-12-02T00:26:11.521Z,3.58
2022-12-02T00:27:11.623Z,3.54
2022-12-02T00:28:12.483Z,3.53
2022-12-02T00:29:11.531Z,3.53
2022-12-02T00:30:11.458Z,3.53
2022-12-02T00:31:11.518Z,3.52
2022-12-02T00:32:11.651Z,3.50
2022-12-02T00:33:11.445Z,3.49
2022-12-02T00:34:11.405Z,3.47
2022-12-02T00:35:11.480Z,3.49
2022-12-02T00:36:11.389Z,3.49
2022-12-02T00:37:11.385Z,3.46
2022-12-02T00:38:11.432Z,3.46
2022-12-02T00:39:11.441Z,3.47
2022-12-02T00:40:11.358Z,3.46
2022-12-02T00:41:11.408Z,3.46
2022-12-02T00:42:11.686Z,3.44
2022-12-02T00:43:15.140Z,3.42
2022-12-02T00:44:11.311Z,3.40
2022-12-02T00:45:11.497Z,3.42
2022-12-02T00:46:11.445Z,3.39
2022-12-02T00:47:11.511Z,3.40
2022-12-02T00:48:11.472Z,3.39
2022-12-02T00:49:11.479Z,3.36
2022-12-02T00:50:11.298Z,3.34
2022-12-02T00:51:11.286Z,3.36
2022-12-02T00:52:11.279Z,3.36
2022-12-02T00:53:11.459Z,3.34
2022-12-02T00:54:11.481Z,3.34
2022-12-02T00:55:11.253Z,3.36
2022-12-02T00:56:11.339Z,3.34
2022-12-02T00:57:11.386Z,3.33
2022-12-02T00:58:11.201Z,3.36
2022-12-02T00:59:11.381Z,3.39
2022-12-02T01:00:11.360Z,3.39
2022-12-02T01:01:11.648Z,3.39
2022-12-02T01:02:11.554Z,3.36
2022-12-02T01:03:11.113Z,3.36
2022-12-02T01:04:11.188Z,3.39
2022-12-02T01:05:11.393Z,3.39
2022-12-02T01:06:11.197Z,3.36
2022-12-02T01:07:11.138Z,3.36
2022-12-02T01:08:11.284Z,3.36
2022-12-02T01:09:11.397Z,3.36
2022-12-02T01:10:11.227Z,3.36
2022-12-02T01:11:11.197Z,3.34
2022-12-02T01:12:11.085Z,3.39
2022-12-02T01:13:11.123Z,3.39
2022-12-02T01:14:11.306Z,3.36
2022-12-02T01:15:11.242Z,3.36
2022-12-02T01:16:11.099Z,3.40
2022-12-02T01:17:11.066Z,3.39
2022-12-02T01:18:11.002Z,3.42
2022-12-02T01:19:10.995Z,3.39
2022-12-02T01:20:11.080Z,3.42
2022-12-02T01:21:11.273Z,3.43
2022-12-02T01:22:11.019Z,3.43
2022-12-02T01:23:11.263Z,3.42
2022-12-02T01:24:11.167Z,3.42
2022-12-02T01:25:10.916Z,3.43
2022-12-02T01:26:11.101Z,3.42
2022-12-02T01:27:11.105Z,3.42
2022-12-02T01:28:11.242Z,3.42
2022-12-02T01:29:11.018Z,3.42
2022-12-02T01:30:11.134Z,3.42
2022-12-02T01:31:11.267Z,3.40
2022-12-02T01:32:11.102Z,3.39
2022-12-02T01:33:11.019Z,3.40
2022-12-02T01:34:11.039Z,3.42
2022-12-02T01:35:10.938Z,3.40
2022-12-02T01:36:11.018Z,3.36
2022-12-02T01:37:10.956Z,3.39
2022-12-02T01:38:10.833Z,3.36
2022-12-02T01:39:10.850Z,3.34
2022-12-02T01:40:10.771Z,3.36
2022-12-02T01:41:10.809Z,3.34
2022-12-02T01:42:10.768Z,3.34
2022-12-02T01:43:10.721Z,3.39
2022-12-02T01:44:10.778Z,3.36
2022-12-02T01:45:10.881Z,3.39
2022-12-02T01:46:10.750Z,3.40
2022-12-02T01:47:10.796Z,3.40
2022-12-02T01:48:10.685Z,3.40
2022-12-02T01:49:10.878Z,3.42
2022-12-02T01:50:10.775Z,3.43
2022-12-02T01:51:10.758Z,3.43
2022-12-02T01:52:10.816Z,3.43
2022-12-02T01:53:10.660Z,3.44
2022-12-02T01:54:10.796Z,3.46
2022-12-02T01:55:10.792Z,3.44
2022-12-02T01:56:10.746Z,3.44
2022-12-02T01:57:10.593Z,3.43
2022-12-02T01:58:10.602Z,3.46
2022-12-02T01:59:10.660Z,3.44
2022-12-02T02:00:10.705Z,3.44
2022-12-02T02:01:10.677Z,3.44
2022-12-02T02:02:10.595Z,3.43
2022-12-02T02:03:10.520Z,3.44
2022-12-02T02:04:10.594Z,3.44
2022-12-02T02:05:10.765Z,3.46
2022-12-02T02:06:10.752Z,3.47
2022-12-02T02:07:10.539Z,3.47
2022-12-02T02:08:10.819Z,3.46
2022-12-02T02:09:10.591Z,3.46
2022-12-02T02:10:10.666Z,3.47
2022-12-02T02:11:10.485Z,3.47
2022-12-02T02:12:10.481Z,3.44
2022-12-02T02:13:10.667Z,3.49
2022-12-02T02:14:10.483Z,3.49
2022-12-02T02:15:10.700Z,3.47
2022-12-02T02:16:10.502Z,3.49
2022-12-02T02:17:10.579Z,3.50
2022-12-02T02:18:10.390Z,3.50
2022-12-02T02:19:10.498Z,3.52
2022-12-02T02:20:10.365Z,3.50
2022-12-02T02:21:10.443Z,3.50
2022-12-02T02:22:10.356Z,3.50
2022-12-02T02:23:10.402Z,3.52
2022-12-02T02:24:10.363Z,3.52
2022-12-02T02:25:10.540Z,3.53
2022-12-02T02:26:10.308Z,3.53
2022-12-02T02:27:10.545Z,3.54
2022-12-02T02:28:10.416Z,3.57
2022-12-02T02:29:10.438Z,3.54
2022-12-02T02:30:10.314Z,3.52
2022-12-02T02:31:10.509Z,3.53
2022-12-02T02:32:10.569Z,3.52
2022-12-02T02:33:10.463Z,3.50
2022-12-02T02:34:10.312Z,3.50
2022-12-02T02:35:10.320Z,3.49
2022-12-02T02:36:10.258Z,3.49
2022-12-02T02:37:10.259Z,3.50
2022-12-02T02:38:10.190Z,3.50
2022-12-02T02:39:10.241Z,3.50
2022-12-02T02:40:10.472Z,3.50
2022-12-02T02:41:10.280Z,3.52
2022-12-02T02:42:10.158Z,3.52
2022-12-02T02:43:10.429Z,3.50
2022-12-02T02:44:10.362Z,3.50
2022-12-02T02:45:10.166Z,3.52
2022-12-02T02:46:10.271Z,3.52
2022-12-02T02:47:10.140Z,3.54
2022-12-02T02:48:10.110Z,3.54
2022-12-02T02:49:10.257Z,3.53
2022-12-02T02:50:10.260Z,3.53
2022-12-02T02:51:10.255Z,3.53
2022-12-02T02:52:10.078Z,3.54
2022-12-02T02:53:10.116Z,3.54
2022-12-02T02:54:10.012Z,3.57
2022-12-02T02:55:10.235Z,3.54
2022-12-02T02:56:10.512Z,3.57
2022-12-02T02:57:10.325Z,3.54
2022-12-02T02:58:10.144Z,3.52
2022-12-02T02:59:10.010Z,3.52
2022-12-02T03:00:10.105Z,3.52
2022-12-02T03:01:10.017Z,3.54
2022-12-02T03:02:10.060Z,3.54
2022-12-02T03:03:09.938Z,3.54
2022-12-02T03:04:10.161Z,3.53
2022-12-02T03:05:10.022Z,3.54
2022-12-02T03:06:10.147Z,3.53
2022-12-02T03:07:10.017Z,3.54
2022-12-02T03:08:10.367Z,3.57
2022-12-02T03:09:10.087Z,3.57
2022-12-02T03:10:09.922Z,3.54
2022-12-02T03:11:09.891Z,3.57
2022-12-02T03:12:10.001Z,3.57
2022-12-02T03:13:09.898Z,3.54
2022-12-02T03:14:15.248Z,3.54
2022-12-02T03:15:09.993Z,3.54
2022-12-02T03:16:10.322Z,3.58
2022-12-02T03:17:10.195Z,3.57
2022-12-02T03:18:10.026Z,3.57
2022-12-02T03:19:09.841Z,3.57
2022-12-02T03:20:10.003Z,3.57
2022-12-02T03:21:09.908Z,3.54
2022-12-02T03:22:09.942Z,3.54
2022-12-02T03:23:09.945Z,3.53
2022-12-02T03:24:09.919Z,3.53
2022-12-02T03:25:09.734Z,3.54
2022-12-02T03:26:09.727Z,3.54
2022-12-02T03:27:09.713Z,3.54
2022-12-02T03:28:09.757Z,3.53
2022-12-02T03:29:09.863Z,3.57
2022-12-02T03:30:10.929Z,3.54
2022-12-02T03:31:09.728Z,3.57
2022-12-02T03:32:09.691Z,3.57
2022-12-02T03:33:10.158Z,3.54
2022-12-02T03:34:09.722Z,3.57
2022-12-02T03:35:09.971Z,3.54
2022-12-02T03:36:09.719Z,3.52
2022-12-02T03:37:09.717Z,3.52
2022-12-02T03:38:09.747Z,3.52
2022-12-02T03:39:09.590Z,3.53
2022-12-02T03:40:09.707Z,3.53
2022-12-02T03:41:09.586Z,3.50
2022-12-02T03:42:09.674Z,3.50
2022-12-02T03:43:09.609Z,3.50
2022-12-02T03:44:09.523Z,3.49
2022-12-02T03:45:09.713Z,3.50
2022-12-02T03:46:09.584Z,3.50
2022-12-02T03:47:09.573Z,3.52
2022-12-02T03:48:09.557Z,3.52
2022-12-02T03:49:09.499Z,3.53
2022-12-02T03:50:09.717Z,3.53
2022-12-02T03:51:09.461Z,3.53
2022-12-02T03:52:09.459Z,3.53
2022-12-02T03:53:09.536Z,3.53
2022-12-02T03:54:09.475Z,3.50
2022-12-02T03:55:09.530Z,3.50
2022-12-02T03:56:09.381Z,3.50
2022-12-02T03:57:09.433Z,3.50
2022-12-02T03:58:09.364Z,3.50
2022-12-02T03:59:09.425Z,3.53
2022-12-02T04:00:15.448Z,3.53
2022-12-02T04:01:09.444Z,3.53
2022-12-02T04:02:09.399Z,3.53
2022-12-02T04:03:09.469Z,3.54
2022-12-02T04:04:09.826Z,3.53
2022-12-02T04:05:09.593Z,3.52
2022-12-02T04:06:09.441Z,3.52
2022-12-02T04:07:09.623Z,3.50
2022-12-02T04:08:09.482Z,3.52
2022-12-02T04:09:09.279Z,3.49
2022-12-02T04:10:09.427Z,3.50
2022-12-02T04:11:09.294Z,3.52
2022-12-02T04:12:09.254Z,3.50
2022-12-02T04:13:09.235Z,3.49
2022-12-02T04:14:09.219Z,3.47
2022-12-02T04:15:09.350Z,3.47
2022-12-02T04:16:09.371Z,3.47
2022-12-02T04:17:09.388Z,3.49
2022-12-02T04:18:09.303Z,3.47
2022-12-02T04:19:09.368Z,3.49
2022-12-02T04:20:09.160Z,3.47
2022-12-02T04:21:09.142Z,3.47
2022-12-02T04:22:09.301Z,3.49
2022-12-02T04:23:09.626Z,3.47
2022-12-02T04:24:09.158Z,3.47
2022-12-02T04:25:09.337Z,3.47
2022-12-02T04:26:09.119Z,3.47
2022-12-02T04:27:09.176Z,3.47
2022-12-02T04:28:09.222Z,3.46
2022-12-02T04:29:09.472Z,3.47
2022-12-02T04:30:09.085Z,3.50
2022-12-02T04:31:09.184Z,3.46
2022-12-02T04:32:09.263Z,3.47
2022-12-02T04:33:09.239Z,3.47
2022-12-02T04:34:09.860Z,3.47
2022-12-02T04:35:09.038Z,3.47
2022-12-02T04:36:09.233Z,3.46
2022-12-02T04:37:09.219Z,3.46
2022-12-02T04:38:12.232Z,3.47
2022-12-02T04:39:09.122Z,3.47
2022-12-02T04:40:08.963Z,3.47
2022-12-02T04:41:09.149Z,3.47
2022-12-02T04:42:09.029Z,3.46
2022-12-02T04:43:08.958Z,3.46
2022-12-02T04:44:12.520Z,3.47
2022-12-02T04:45:08.916Z,3.50
2022-12-02T04:46:08.980Z,3.49
2022-12-02T04:47:08.917Z,3.49
2022-12-02T04:48:09.083Z,3.47
2022-12-02T04:49:08.845Z,3.49
2022-12-02T04:50:08.911Z,3.49
2022-12-02T04:51:08.888Z,3.47
2022-12-02T04:52:08.864Z,3.46
2022-12-02T04:53:08.948Z,3.44
2022-12-02T04:54:08.842Z,3.46
2022-12-02T04:55:08.871Z,3.46
2022-12-02T04:56:08.941Z,3.44
2022-12-02T04:57:09.018Z,3.44
2022-12-02T04:58:08.833Z,3.44
2022-12-02T04:59:09.213Z,3.46
2022-12-02T05:00:09.150Z,3.46
2022-12-02T05:01:08.800Z,3.46
2022-12-02T05:02:08.768Z,3.44
2022-12-02T05:03:08.870Z,3.46
2022-12-02T05:04:08.997Z,3.46
2022-12-02T05:05:08.897Z,3.43
2022-12-02T05:06:08.714Z,3.43
2022-12-02T05:07:08.700Z,3.43
2022-12-02T05:08:08.942Z,3.44
2022-12-02T05:09:08.675Z,3.44
2022-12-02T05:10:08.716Z,3.43
2022-12-02T05:11:08.925Z,3.46
2022-12-02T05:12:08.619Z,3.44
2022-12-02T05:13:08.629Z,3.46
2022-12-02T05:14:08.636Z,3.44
2022-12-02T05:15:08.626Z,3.44
2022-12-02T05:16:08.694Z,3.46
2022-12-02T05:17:08.640Z,3.44
2022-12-02T05:18:08.595Z,3.44
2022-12-02T05:19:08.955Z,3.44
2022-12-02T05:20:08.592Z,3.46
2022-12-02T05:21:08.576Z,3.46
2022-12-02T05:22:08.747Z,3.46
2022-12-02T05:23:08.553Z,3.49
2022-12-02T05:24:08.520Z,3.49
2022-12-02T05:25:08.669Z,3.46
2022-12-02T05:26:08.630Z,3.49
2022-12-02T05:27:08.585Z,3.47
2022-12-02T05:28:08.468Z,3.46
2022-12-02T05:29:08.665Z,3.47
2022-12-02T05:30:08.685Z,3.44
2022-12-02T05:31:08.508Z,3.46
2022-12-02T05:32:08.425Z,3.47
2022-12-02T05:33:08.438Z,3.47
2022-12-02T05:34:08.409Z,3.49
2022-12-02T05:35:08.522Z,3.47
2022-12-02T05:36:08.404Z,3.46
2022-12-02T05:37:08.384Z,3.44
2022-12-02T05:38:08.385Z,3.43
2022-12-02T05:39:08.508Z,3.44
2022-12-02T05:40:08.390Z,3.44
2022-12-02T05:41:08.406Z,3.42
2022-12-02T05:42:08.458Z,3.42
2022-12-02T05:43:08.484Z,3.40
2022-12-02T05:44:08.464Z,3.40
2022-12-02T05:45:08.296Z,3.42
2022-12-02T05:46:08.454Z,3.40
2022-12-02T05:47:08.454Z,3.36
2022-12-02T05:48:08.272Z,3.39
2022-12-02T05:49:08.288Z,3.39
2022-12-02T05:50:08.317Z,3.40
2022-12-02T05:51:08.452Z,3.34
2022-12-02T05:52:08.225Z,3.34
2022-12-02T05:53:08.432Z,3.33
2022-12-02T05:54:08.248Z,3.33
2022-12-02T05:55:08.271Z,3.34
2022-12-02T05:56:08.189Z,3.34
2022-12-02T05:57:08.190Z,3.34
2022-12-02T05:58:08.148Z,3.34
2022-12-02T05:59:08.229Z,3.31
2022-12-02T06:00:08.296Z,3.31
2022-12-02T06:01:08.218Z,3.28
2022-12-02T06:02:08.380Z,3.27
2022-12-02T06:03:08.241Z,3.25
2022-12-02T06:04:08.182Z,3.27
2022-12-02T06:05:08.159Z,3.28
2022-12-02T06:06:08.211Z,3.28
2022-12-02T06:07:08.101Z,3.30
2022-12-02T06:08:08.244Z,3.27
2022-12-02T06:09:08.111Z,3.25
2022-12-02T06:10:08.205Z,3.24
2022-12-02T06:11:08.662Z,3.24
2022-12-02T06:12:08.396Z,3.24
2022-12-02T06:13:08.224Z,3.24
2022-12-02T06:14:07.990Z,3.24
2022-12-02T06:15:08.126Z,3.24
2022-12-02T06:16:08.082Z,3.24
2022-12-02T06:17:08.098Z,3.24
2022-12-02T06:18:07.981Z,3.23
2022-12-02T06:19:07.993Z,3.23
2022-12-02T06:20:07.991Z,3.23
2022-12-02T06:21:08.072Z,3.21
2022-12-02T06:22:08.194Z,3.20
2022-12-02T06:23:08.001Z,3.21
2022-12-02T06:24:07.930Z,3.20
2022-12-02T06:25:08.050Z,3.20
2022-12-02T06:26:08.088Z,3.20
2022-12-02T06:27:07.930Z,3.20
2022-12-02T06:28:10.652Z,3.20
2022-12-02T06:29:07.941Z,3.21
2022-12-02T06:30:08.007Z,3.21
2022-12-02T06:31:07.937Z,3.20
2022-12-02T06:32:07.940Z,3.18
2022-12-02T06:33:07.885Z,3.18
2022-12-02T06:34:07.799Z,3.16
2022-12-02T06:35:07.896Z,3.15
2022-12-02T06:36:07.811Z,3.16
2022-12-02T06:37:07.842Z,3.16
2022-12-02T06:38:07.885Z,3.16
2022-12-02T06:39:07.802Z,3.18
2022-12-02T06:41:07.890Z,3.16
2022-12-02T06:42:07.740Z,3.20
2022-12-02T06:43:07.938Z,3.16
2022-12-02T06:44:08.208Z,3.18
2022-12-02T06:45:07.807Z,3.16
2022-12-02T06:46:07.844Z,3.20
2022-12-02T06:47:07.764Z,3.18
2022-12-02T06:48:07.683Z,3.16
2022-12-02T06:49:07.679Z,3.18
2022-12-02T06:50:07.882Z,3.20
2022-12-02T06:51:07.667Z,3.18
2022-12-02T06:52:07.755Z,3.18
2022-12-02T06:53:07.706Z,3.18
2022-12-02T06:54:07.722Z,3.15
2022-12-02T06:55:07.701Z,3.13
2022-12-02T06:56:07.721Z,3.13
2022-12-02T06:57:07.706Z,3.13
2022-12-02T06:58:07.605Z,3.13
2022-12-02T06:59:07.799Z,3.15
2022-12-02T07:00:07.695Z,3.16
2022-12-02T07:01:07.881Z,3.15
2022-12-02T07:02:08.607Z,3.15
2022-12-02T07:03:07.848Z,3.15
2022-12-02T07:04:07.567Z,3.15
2022-12-02T07:05:07.513Z,3.15
2022-12-02T07:06:07.510Z,3.16
2022-12-02T07:07:07.498Z,3.15
2022-12-02T07:08:07.680Z,3.16
2022-12-02T07:09:07.468Z,3.16
2022-12-02T07:10:07.453Z,3.18
2022-12-02T07:11:07.683Z,3.18
2022-12-02T07:12:07.655Z,3.16
2022-12-02T07:13:07.478Z,3.15
2022-12-02T07:14:07.450Z,3.20
2022-12-02T07:15:07.509Z,3.18
2022-12-02T07:16:07.425Z,3.18
2022-12-02T07:17:07.432Z,3.20
2022-12-02T07:18:07.490Z,3.20
2022-12-02T07:19:07.376Z,3.16
2022-12-02T07:20:07.496Z,3.18
2022-12-02T07:21:07.459Z,3.20
2022-12-02T07:22:07.361Z,3.16
2022-12-02T07:23:07.328Z,3.16
2022-12-02T07:24:07.334Z,3.16
2022-12-02T07:25:07.327Z,3.20
2022-12-02T07:26:07.298Z,3.18
2022-12-02T07:27:07.304Z,3.18
2022-12-02T07:28:07.377Z,3.20
2022-12-02T07:29:15.789Z,3.20
2022-12-02T07:30:07.267Z,3.18
2022-12-02T07:31:07.334Z,3.21
2022-12-02T07:32:07.225Z,3.23
2022-12-02T07:33:07.234Z,3.23
2022-12-02T07:34:07.329Z,3.21
2022-12-02T07:35:07.508Z,3.21
2022-12-02T07:36:07.537Z,3.20
2022-12-02T07:37:07.228Z,3.21
2022-12-02T07:38:07.176Z,3.23
2022-12-02T07:39:07.613Z,3.21
2022-12-02T07:40:07.309Z,3.23
2022-12-02T07:41:07.290Z,3.24
2022-12-02T07:42:07.131Z,3.25
2022-12-02T07:43:07.127Z,3.23
2022-12-02T07:44:07.133Z,3.23
2022-12-02T07:45:07.451Z,3.24
2022-12-02T07:46:07.368Z,3.23
2022-12-02T07:47:07.447Z,3.24
2022-12-02T07:48:07.296Z,3.24
2022-12-02T07:49:07.063Z,3.24
2022-12-02T07:50:07.172Z,3.24
2022-12-02T07:51:07.075Z,3.30
2022-12-02T07:52:07.216Z,3.28
2022-12-02T07:53:07.069Z,3.25
2022-12-02T07:54:06.998Z,3.24
2022-12-02T07:55:07.010Z,3.24
2022-12-02T07:56:07.263Z,3.27
2022-12-02T07:57:07.160Z,3.28
2022-12-02T07:58:07.012Z,3.27
2022-12-02T07:59:12.438Z,3.27
2022-12-02T08:00:06.965Z,3.25
2022-12-02T08:01:07.227Z,3.25
2022-12-02T08:02:07.194Z,3.27
2022-12-02T08:03:07.031Z,3.27
2022-12-02T08:04:07.044Z,3.25
2022-12-02T08:05:07.041Z,3.28
2022-12-02T08:06:07.139Z,3.30
2022-12-02T08:07:07.103Z,3.28
2022-12-02T08:08:07.545Z,3.28
2022-12-02T08:09:06.907Z,3.28
2022-12-02T08:10:06.880Z,3.30
2022-12-02T08:11:06.852Z,3.31
2022-12-02T08:12:06.819Z,3.31
2022-12-02T08:13:06.853Z,3.33
2022-12-02T08:14:06.840Z,3.34
2022-12-02T08:15:06.942Z,3.36
2022-12-02T08:16:06.883Z,3.36
2022-12-02T08:17:07.207Z,3.36
2022-12-02T08:18:06.766Z,3.34
2022-12-02T08:19:06.805Z,3.34
2022-12-02T08:20:06.892Z,3.36
2022-12-02T08:21:09.016Z,3.39
2022-12-02T08:22:06.933Z,3.36
2022-12-02T08:23:06.784Z,3.36
2022-12-02T08:24:06.903Z,3.39
2022-12-02T08:25:06.752Z,3.36
2022-12-02T08:26:06.738Z,3.36
2022-12-02T08:27:06.692Z,3.33
2022-12-02T08:28:06.679Z,3.30
2022-12-02T08:29:06.898Z,3.33
2022-12-02T08:30:06.656Z,3.34
2022-12-02T08:31:06.864Z,3.34
2022-12-02T08:32:06.709Z,3.36
2022-12-02T08:33:06.725Z,3.34
2022-12-02T08:34:07.714Z,3.40
2022-12-02T08:35:06.608Z,3.36
2022-12-02T08:36:06.637Z,3.39
2022-12-02T08:37:06.581Z,3.36
2022-12-02T08:38:06.623Z,3.39
2022-12-02T08:39:06.787Z,3.39
2022-12-02T08:40:06.647Z,3.40
2022-12-02T08:41:10.754Z,3.40
2022-12-02T08:42:06.539Z,3.42
2022-12-02T08:43:06.541Z,3.39
2022-12-02T08:44:06.722Z,3.40
2022-12-02T08:45:06.502Z,3.40
2022-12-02T08:46:06.664Z,3.40
2022-12-02T08:47:06.511Z,3.40
2022-12-02T08:48:06.692Z,3.42
2022-12-02T08:49:06.534Z,3.40
2022-12-02T08:50:06.686Z,3.42
2022-12-02T08:51:06.586Z,3.39
2022-12-02T08:52:06.525Z,3.40
2022-12-02T08:53:06.459Z,3.43
2022-12-02T08:54:06.442Z,3.43
2022-12-02T08:55:06.518Z,3.40
2022-12-02T08:56:06.473Z,3.40
2022-12-02T08:57:06.453Z,3.40
2022-12-02T08:58:06.396Z,3.42
2022-12-02T08:59:06.451Z,3.43
2022-12-02T09:00:06.338Z,3.44
2022-12-02T09:01:06.403Z,3.44
2022-12-02T09:02:06.527Z,3.47
2022-12-02T09:03:06.392Z,3.47
2022-12-02T09:04:06.381Z,3.47
2022-12-02T09:05:06.353Z,3.44
2022-12-02T09:06:06.299Z,3.46
2022-12-02T09:07:06.314Z,3.47
2022-12-02T09:08:06.377Z,3.44
2022-12-02T09:09:06.352Z,3.46
2022-12-02T09:10:06.274Z,3.49
2022-12-02T09:11:06.382Z,3.50
2022-12-02T09:12:06.245Z,3.49
2022-12-02T09:13:06.416Z,3.50
2022-12-02T09:14:06.219Z,3.47
2022-12-02T09:15:06.379Z,3.47
2022-12-02T09:16:06.255Z,3.49
2022-12-02T09:17:06.314Z,3.49
2022-12-02T09:18:11.078Z,3.52
2022-12-02T09:19:06.161Z,3.52
2022-12-02T09:20:06.233Z,3.52
2022-12-02T09:21:06.220Z,3.53
2022-12-02T09:22:06.138Z,3.53
2022-12-02T09:23:06.363Z,3.54
2022-12-02T09:24:06.150Z,3.57
2022-12-02T09:25:06.515Z,3.57
2022-12-02T09:26:06.299Z,3.57
2022-12-02T09:27:06.093Z,3.53
2022-12-02T09:28:06.404Z,3.54
2022-12-02T09:29:06.080Z,3.58
2022-12-02T09:30:06.048Z,3.57
2022-12-02T09:31:06.235Z,3.54
2022-12-02T09:32:06.037Z,3.53
2022-12-02T09:33:06.030Z,3.53
2022-12-02T09:34:06.346Z,3.52
2022-12-02T09:35:06.185Z,3.52
2022-12-02T09:36:05.966Z,3.54
2022-12-02T09:37:06.004Z,3.54
2022-12-02T09:38:06.086Z,3.57
2022-12-02T09:39:05.940Z,3.58
2022-12-02T09:40:06.160Z,3.58
2022-12-02T09:41:06.056Z,3.57
2022-12-02T09:42:05.967Z,3.57
2022-12-02T09:43:06.066Z,3.54
2022-12-02T09:44:05.914Z,3.54
2022-12-02T09:45:06.077Z,3.54
2022-12-02T09:46:05.992Z,3.53
2022-12-02T09:47:05.972Z,3.54
2022-12-02T09:48:05.972Z,3.54
2022-12-02T09:49:06.063Z,3.50
2022-12-02T09:50:05.840Z,3.52
2022-12-02T09:51:05.829Z,3.50
2022-12-02T09:52:05.978Z,3.52
2022-12-02T09:53:05.868Z,3.52
2022-12-02T09:54:05.928Z,3.53
2022-12-02T09:55:05.814Z,3.53
2022-12-02T09:56:05.904Z,3.54
2022-12-02T09:57:06.043Z,3.52
2022-12-02T09:58:05.787Z,3.53
2022-12-02T09:59:05.912Z,3.53
2022-12-02T10:00:05.843Z,3.52
2022-12-02T10:01:05.716Z,3.53
2022-12-02T10:02:05.787Z,3.57
2022-12-02T10:03:05.842Z,3.54
2022-12-02T10:04:05.826Z,3.57
2022-12-02T10:05:05.862Z,3.57
2022-12-02T10:06:05.899Z,3.58
2022-12-02T10:07:05.661Z,3.57
2022-12-02T10:08:05.761Z,3.54
2022-12-02T10:09:05.724Z,3.57
2022-12-02T10:10:05.794Z,3.57
2022-12-02T10:11:05.717Z,3.58
2022-12-02T10:12:05.797Z,3.58
2022-12-02T10:13:08.049Z,3.58
2022-12-02T10:14:05.685Z,3.58
2022-12-02T10:15:05.667Z,3.60
2022-12-02T10:16:05.758Z,3.62
2022-12-02T10:17:05.792Z,3.62
2022-12-02T10:18:05.583Z,3.64
2022-12-02T10:19:05.583Z,3.62
2022-12-02T10:20:05.592Z,3.65
2022-12-02T10:21:05.717Z,3.64
2022-12-02T10:22:05.639Z,3.64
2022-12-02T10:23:05.592Z,3.60
2022-12-02T10:24:05.576Z,3.58
2022-12-02T10:25:05.548Z,3.53
2022-12-02T10:26:05.664Z,3.54
2022-12-02T10:27:05.480Z,3.58
2022-12-02T10:28:05.461Z,3.60
2022-12-02T10:29:05.513Z,3.58
2022-12-02T10:30:05.653Z,3.58
2022-12-02T10:31:05.683Z,3.60
2022-12-02T10:32:05.418Z,3.58
2022-12-02T10:33:05.422Z,3.58
2022-12-02T10:34:05.626Z,3.58
2022-12-02T10:35:05.474Z,3.54
2022-12-02T10:36:05.379Z,3.53
2022-12-02T10:37:05.555Z,3.53
2022-12-02T10:38:05.498Z,3.53
2022-12-02T10:39:05.328Z,3.52
2022-12-02T10:40:06.334Z,3.49
2022-12-02T10:41:05.374Z,3.52
2022-12-02T10:42:05.350Z,3.52
2022-12-02T10:43:05.320Z,3.53
2022-12-02T10:44:05.596Z,3.50
2022-12-02T10:45:05.269Z,3.54
2022-12-02T10:46:05.275Z,3.60
2022-12-02T10:47:05.403Z,3.60
2022-12-02T10:48:05.270Z,3.61
2022-12-02T10:49:05.972Z,3.62
2022-12-02T10:50:05.237Z,3.64
2022-12-02T10:51:05.209Z,3.62
2022-12-02T10:52:05.258Z,3.61
2022-12-02T10:53:05.232Z,3.62
2022-12-02T10:54:05.206Z,3.65
2022-12-02T10:55:05.216Z,3.64
2022-12-02T10:56:05.224Z,3.65
2022-12-02T10:57:05.224Z,3.64
2022-12-02T10:58:05.241Z,3.62
2022-12-02T10:59:05.199Z,3.60
2022-12-02T11:00:05.278Z,3.57
2022-12-02T11:01:05.214Z,3.54
2022-12-02T11:02:05.479Z,3.53
2022-12-02T11:03:05.130Z,3.52
2022-12-02T11:04:05.235Z,3.53
2022-12-02T11:05:05.236Z,3.54
2022-12-02T11:06:05.161Z,3.54
2022-12-02T11:07:05.078Z,3.54
2022-12-02T11:08:05.240Z,3.61
2022-12-02T11:09:37.940Z,3.61
2022-12-02T11:10:05.081Z,3.61
2022-12-02T11:11:05.209Z,3.62
2022-12-02T11:12:05.052Z,3.62
2022-12-02T11:13:05.156Z,3.60
2022-12-02T11:14:05.024Z,3.60
2022-12-02T11:15:05.148Z,3.58
2022-12-02T11:16:04.994Z,3.57
2022-12-02T11:17:05.088Z,3.53
2022-12-02T11:18:05.204Z,3.53
2022-12-02T11:19:04.949Z,3.54
2022-12-02T11:20:04.958Z,3.54
2022-12-02T11:21:04.933Z,3.54
2022-12-02T11:22:04.973Z,3.54
2022-12-02T11:23:05.139Z,3.54
2022-12-02T11:24:05.044Z,3.53
2022-12-02T11:25:05.174Z,3.54
2022-12-02T11:26:04.906Z,3.53
2022-12-02T11:27:04.961Z,3.57
2022-12-02T11:28:04.876Z,3.57
2022-12-02T11:29:06.031Z,3.54
2022-12-02T11:30:05.062Z,3.57
2022-12-02T11:31:04.888Z,3.53
2022-12-02T11:32:04.902Z,3.58
2022-12-02T11:33:04.797Z,3.58
2022-12-02T11:34:06.376Z,3.58
2022-12-02T11:35:20.879Z,3.57
2022-12-02T11:36:04.817Z,3.57
2022-12-02T11:37:04.795Z,3.60
2022-12-02T11:38:04.763Z,3.61
2022-12-02T11:39:04.803Z,3.64
2022-12-02T11:40:04.775Z,3.65
2022-12-02T11:41:04.794Z,3.67
2022-12-02T11:42:04.734Z,3.67
2022-12-02T11:43:04.944Z,3.70
2022-12-02T11:44:04.854Z,3.70
2022-12-02T11:45:04.703Z,3.70
2022-12-02T11:46:04.760Z,3.70
2022-12-02T11:47:04.901Z,3.68
2022-12-02T11:48:04.810Z,3.68
2022-12-02T11:49:04.669Z,3.70
2022-12-02T11:50:04.944Z,3.68
2022-12-02T11:51:04.790Z,3.70
2022-12-02T11:52:08.373Z,3.71
2022-12-02T11:53:04.665Z,3.72
2022-12-02T11:54:04.615Z,3.75
2022-12-02T11:55:04.650Z,3.75
2022-12-02T11:56:04.610Z,3.80
2022-12-02T11:57:04.744Z,3.85
2022-12-02T11:58:04.621Z,3.88
2022-12-02T11:59:04.906Z,3.88
2022-12-02T12:00:04.611Z,3.88
2022-12-02T12:01:04.572Z,3.88
2022-12-02T12:02:04.799Z,3.88
2022-12-02T12:03:04.691Z,3.89
2022-12-02T12:04:04.714Z,3.89
2022-12-02T12:05:04.683Z,3.89
2022-12-02T12:06:04.483Z,3.88
2022-12-02T12:07:04.448Z,3.88
2022-12-02T12:08:04.648Z,3.88
2022-12-02T12:09:04.451Z,3.86
2022-12-02T12:10:04.632Z,3.86
2022-12-02T12:11:04.637Z,3.85
2022-12-02T12:12:04.436Z,3.86
2022-12-02T12:13:04.406Z,3.88
2022-12-02T12:14:04.562Z,3.88
2022-12-02T12:15:04.410Z,3.90
2022-12-02T12:16:04.512Z,3.89
2022-12-02T12:17:04.478Z,3.88
2022-12-02T12:18:04.405Z,3.86
2022-12-02T12:19:05.003Z,3.83
2022-12-02T12:20:04.710Z,3.79
2022-12-02T12:21:04.565Z,3.80
2022-12-02T12:22:04.360Z,3.83
2022-12-02T12:23:04.567Z,3.82
2022-12-02T12:24:04.329Z,3.82
2022-12-02T12:25:04.419Z,3.85
2022-12-02T12:26:04.315Z,3.88
2022-12-02T12:27:04.265Z,3.92
2022-12-02T12:28:04.431Z,3.97
2022-12-02T12:29:04.335Z,4.00
2022-12-02T12:30:04.433Z,4.03
2022-12-02T12:31:04.648Z,4.06
2022-12-02T12:32:04.227Z,4.06
2022-12-02T12:33:04.240Z,4.07
2022-12-02T12:34:04.265Z,4.10
2022-12-02T12:35:04.387Z,4.10
2022-12-02T12:36:04.351Z,4.14
2022-12-02T12:37:04.295Z,4.10
2022-12-02T12:38:04.195Z,4.08
2022-12-02T12:39:04.350Z,4.07
2022-12-02T12:40:04.278Z,4.10
2022-12-02T12:41:04.654Z,4.12
2022-12-02T12:42:04.150Z,4.14
2022-12-02T12:43:04.428Z,4.08
2022-12-02T12:44:04.137Z,4.08
2022-12-02T12:45:04.305Z,4.08
2022-12-02T12:46:04.164Z,4.08
2022-12-02T12:47:04.571Z,4.06
2022-12-02T12:48:04.143Z,4.07
2022-12-02T12:49:04.261Z,4.04
2022-12-02T12:50:04.218Z,4.00
2022-12-02T12:51:04.060Z,3.90
2022-12-02T12:52:04.225Z,3.82
2022-12-02T12:53:04.074Z,3.72
2022-12-02T12:54:04.162Z,3.70
2022-12-02T12:55:04.051Z,3.71
2022-12-02T12:56:04.328Z,3.71
2022-12-02T12:57:03.980Z,3.72
2022-12-02T12:58:03.971Z,3.75
2022-12-02T12:59:04.200Z,3.71
2022-12-02T13:00:03.996Z,3.72
2022-12-02T13:01:04.075Z,3.72
2022-12-02T13:02:04.160Z,3.72
2022-12-02T13:03:04.151Z,3.76
2022-12-02T13:04:03.939Z,3.78
2022-12-02T13:05:04.348Z,3.78
2022-12-02T13:06:03.896Z,3.79
2022-12-02T13:07:04.061Z,3.80
2022-12-02T13:08:09.424Z,3.82
2022-12-02T13:09:03.979Z,3.82
2022-12-02T13:10:04.040Z,3.82
2022-12-02T13:11:03.899Z,3.83
2022-12-02T13:12:08.443Z,3.82
2022-12-02T13:13:03.935Z,3.85
2022-12-02T13:14:04.107Z,3.83
2022-12-02T13:15:03.828Z,3.80
2022-12-02T13:16:03.873Z,3.79
2022-12-02T13:17:04.141Z,3.79
2022-12-02T13:18:04.086Z,3.80
2022-12-02T13:19:03.807Z,3.79